Weather observations for the past three days for
Cumberland
Metric (Imperial)
Date Time (cdt) Wind (kph) Vis. (km) Weather Sky Cond. Temperature (ºC) Relative Humidity Wind Chill (°C) Heat Index (°C) Pressure Precipitation (cm)
Air Dwpt 6 hour altimeter (cm) sea level (mb) 1 hr 3 hr 6 hr
Max. Min.
05 02:35 NE 11 6.44 Fog/Mist OVC003 22 22 100% 76.28 0.0
05 02:15 N 7 2.41 Fog/Mist OVC003 22 22 100% 76.28 0.0
05 01:55 N 7 2.41 Fog/Mist OVC003 22 22 100% 76.28 0.0
05 01:35 N 9 2.41 Fog/Mist OVC003 22 22 100% 76.25 0.0
05 01:15 N 9 2.01 Fog/Mist OVC003 22 22 100% 76.23 0.0
05 00:55 N 7 4.02 Fog/Mist OVC003 22 22 100% 76.25 0.0
05 00:35 N 9 11.27 Overcast OVC003 22 22 100% 76.23 0.0
05 00:15 N 9 16.09 Overcast OVC005 22 22 100% 76.23 0.0
04 23:55 N 13 16.09 Overcast OVC005 22 22 100% 76.2 0.0
04 23:35 NE 7 16.09 Overcast OVC005 22 22 100% 76.23 0.0
04 23:15 N 9 16.09 Mostly Cloudy BKN005 22 21 94% 76.23 0.0
04 22:55 N 13 16.09 Fair CLR 22 21 94% 76.23 0.0
04 22:35 N 9 16.09 Fair CLR 22 21 94% 76.23 0.0
04 22:15 N 9 16.09 Fair CLR 22 21 94% 76.23 0.0
04 21:55 N 7 16.09 Fair CLR 22 21 94% 76.25 0.0
04 21:35 N 7 16.09 Partly Cloudy SCT013 22 21 94% 76.23 0.0
04 21:15 N 9 16.09 Mostly Cloudy BKN013 23 21 89% 76.23 0.0
04 20:55 N 9 16.09 Mostly Cloudy BKN013 23 21 89% 76.23 0.0
04 20:35 N 9 16.09 Fair CLR 23 21 89% 76.2 0.0
04 20:15 N 11 16.09 Fair CLR 24 21 83% 24 76.17 0.0
04 19:55 N 13 16.09 Fair CLR 25 22 83% 26 76.15 0.0
04 19:35 N 11 16.09 Fair CLR 26 22 79% 28 76.15 0.0
04 19:15 N 11 16.09 Fair CLR 26 22 79% 28 76.12 0.0
04 18:55 N 15 16.09 Fair CLR 27 22 74% 29 76.1 0.0
04 18:35 N 17 16.09 Fair CLR 28 22 70% 31 76.1 0.0
04 18:15 N 17 16.09 Fair CLR 29 22 66% 32 76.1 0.0
04 17:55 N 11 16.09 Fair CLR 30 22 62% 33 76.07 0.0
04 17:35 N 13 16.09 Fair CLR 30 22 62% 33 76.05 0.0
04 17:15 N 17 16.09 Fair CLR 31 22 59% 35 76.05 0.0
04 16:50 N 15 16.09 Fair CLR 31 22 59% 35 76.02 0.0
04 16:35 N 11 16.09 Fair CLR 31 22 59% 35 76.02 0.0
04 16:15 N 15 16.09 Fair CLR 31 22 59% 35 76.02 0.0
04 15:55 N 13 16.09 Fair CLR 31 22 59% 35 76.02 0.0
04 15:35 N 7 16.09 Fair CLR 31 22 59% 35 76.02 0.0
04 15:15 NW 7 16.09 Fair CLR 31 23 62% 35 76.02 0.0
04 14:55 N 6 16.09 Partly Cloudy SCT025 SCT039 31 23 62% 35 76.02 0.0
04 14:35 NE 6 16.09 Mostly Cloudy SCT023 BKN039 30 23 66% 34 76.02 0.0
04 14:15 NW 7 16.09 Partly Cloudy SCT021 30 23 66% 34 76.05 0.0
04 13:55 Calm 16.09 Partly Cloudy SCT019 29 23 70% 33 76.05 0.0
04 13:35 N 11 16.09 Mostly Cloudy BKN017 30 24 70% 35 76.02 0.0
04 13:15 N 11 16.09 Overcast OVC017 28 24 79% 32 76.05 0.0
04 12:55 N 11 16.09 Overcast OVC017 28 24 79% 32 76.02 0.0
04 12:35 N 6 16.09 Overcast OVC015 27 24 84% 30 76.05 0.0
04 12:15 Calm 16.09 Overcast BKN009 OVC015 27 25 89% 31 76.05 0.0
04 11:55 Calm 16.09 Overcast OVC009 27 25 89% 31 76.02 0.0
04 11:35 NE 6 16.09 Overcast OVC005 26 25 94% 28 76.05 0.0
04 11:15 NE 7 8.05 Fog/Mist OVC003 26 25 94% 28 76.02 0.0
04 10:55 N 6 4.02 Fog/Mist OVC003 25 25 100% 25 76.02 0.0
04 10:35 N 7 4.83 Fog/Mist OVC003 25 25 100% 25 76.02 0.0
04 10:15 NE 6 4.02 Fog/Mist OVC003 25 25 100% 25 76 0.0
04 09:55 Calm 4.83 Fog/Mist OVC003 25 25 100% 25 75.97 0.0
04 09:35 E 6 4.02 Fog/Mist OVC003 25 25 100% 25 75.97 0.0
04 09:15 Calm 4.83 Fog/Mist OVC003 25 25 100% 25 75.97 0.0
04 08:55 Calm 4.83 Fog/Mist OVC003 25 24 94% 26 75.95 0.0
04 08:35 S 7 2.01 Fog/Mist OVC003 24 24 100% 23 75.92 0.0
04 08:15 Calm 4.83 Fog/Mist OVC003 24 23 94% 23 75.92 0.0
04 07:55 SE 6 8.05 Fog/Mist OVC003 23 23 100% 75.92 0.0
04 07:35 S 6 11.27 Overcast OVC005 23 23 100% 75.87 0.0
04 07:15 S 7 16.09 Overcast OVC007 23 22 94% 75.87 0.0
04 06:55 Calm 16.09 Overcast OVC007 23 22 94% 75.87 0.0
04 06:35 Calm 16.09 Overcast OVC009 23 22 94% 75.87 0.0
04 06:15 E 7 16.09 Overcast OVC009 23 22 94% 75.87 0.0
04 05:55 E 11 16.09 Overcast OVC009 23 22 94% 75.87 0.0
04 05:35 E 11 16.09 Overcast OVC009 22 22 100% 75.87 0.0
04 05:15 NE 11 16.09 Overcast OVC007 22 22 100% 75.9 0.0
04 04:55 NE 13 16.09 Overcast OVC005 22 22 100% 75.9 0.0
04 04:35 NE 13 16.09 Overcast OVC005 23 22 94% 75.92 0.0
04 04:15 N 19 16.09 Overcast OVC005 23 23 100% 75.92 0.0
04 03:55 N 7 11.27 Overcast OVC005 23 23 100% 75.87 0.0
04 03:35 NE 6 11.27 Partly Cloudy SCT005 22 22 100% 75.84 0.0
04 03:15 Calm 11.27 Partly Cloudy SCT003 23 23 100% 75.82 0.0
04 02:55 SW 7 8.05 Fog/Mist CLR 22 22 100% 75.82 0.0
04 02:30 Calm 11.27 Fair CLR 23 23 100% 75.82 0.0
04 02:15 E 7 16.09 Fair CLR 23 23 100% 75.82 0.0
04 01:55 Calm 16.09 Fair CLR 23 23 100% 75.82 0.0
04 01:35 Calm 16.09 Fair CLR 23 23 100% 75.84 0.0
04 01:15 Calm 16.09 Partly Cloudy SCT033 24 23 94% 23 75.84 0.0
04 00:55 SE 6 16.09 Overcast BKN033 OVC045 24 23 94% 23 75.87 0.0
04 00:35 E 7 16.09 Mostly Cloudy BKN035 BKN045 BKN055 24 23 94% 23 75.87 0.0
04 00:15 Calm 16.09 Mostly Cloudy SCT035 SCT055 BKN075 24 23 94% 23 75.87 0.0
03 23:55 SE 7 16.09 Mostly Cloudy BKN037 BKN050 BKN075 25 23 89% 26 75.87 0.0
03 23:35 SE 7 16.09 Overcast OVC037 25 23 89% 26 75.9 0.0
03 23:15 Calm 16.09 Overcast BKN037 OVC050 25 23 89% 26 75.87 0.0
03 22:55 SE 9 16.09 Overcast BKN039 BKN047 OVC050 25 23 89% 26 75.87 0.0
03 22:35 SE 6 16.09 Overcast SCT038 SCT046 OVC050 25 23 89% 26 75.9 0.0
03 22:15 SE 9 16.09 Overcast SCT041 SCT048 OVC050 25 23 89% 26 75.9 0.0
03 21:55 SE 6 16.09 Overcast SCT045 OVC050 25 23 89% 26 75.9 0.0
03 21:35 Calm 16.09 Overcast OVC050 25 23 89% 26 75.9 0.0
03 21:15 SE 9 16.09 Overcast OVC055 25 23 89% 26 75.9 0.0
03 20:55 SE 11 16.09 Overcast OVC055 25 23 89% 26 75.87 0.0
03 20:35 SE 7 16.09 Overcast OVC055 25 23 89% 26 75.87 0.0
03 20:15 E 11 16.09 Mostly Cloudy BKN065 25 23 89% 26 75.87 0.0
03 19:55 SE 6 16.09 Partly Cloudy SCT065 25 22 83% 26 75.87 0.0
03 19:35 SE 7 16.09 Fair CLR 25 22 83% 26 75.84 0.0
03 19:15 SE 13 16.09 Fair CLR 25 22 83% 26 75.82 0.0
03 18:55 SE 13 16.09 Fair CLR 26 22 79% 28 75.82 0.0
03 18:35 E 15 16.09 Thunderstorm Light Rain in Vicinity SCT027 SCT039 BKN120 26 22 79% 28 75.84 0.0
03 18:15 E 15 16.09 Mostly Cloudy BKN120 26 22 79% 28 75.9 0.0
03 17:55 E 9 16.09 Thunderstorm in Vicinity BKN120 26 22 79% 28 75.87 0.0
03 17:35 E 11 16.09 Thunderstorm BKN110 27 22 74% 29 75.79 0.0
03 17:15 SE 13 16.09 Thunderstorm SCT120 27 22 74% 29 75.84 0.0
03 16:55 SE 9 16.09 Partly Cloudy SCT120 27 22 74% 29 75.84 0.0
03 16:35 SE 15 16.09 Partly Cloudy SCT120 28 22 70% 31 75.87 0.0
03 16:15 SE 13 16.09 Fair CLR 28 23 74% 31 75.87 0.0
03 15:55 S 9 16.09 Thunderstorm in Vicinity CLR 28 22 70% 31 75.9 0.0
03 15:35 SE 13 16.09 Thunderstorm in Vicinity CLR 28 22 70% 31 75.84 0.0
03 15:15 SE 9 16.09 Partly Cloudy SCT095 28 22 70% 31 75.87 0.0
03 14:55 S 13 16.09 Mostly Cloudy BKN095 28 22 70% 31 75.9 0.0
03 14:35 S 15 16.09 Overcast BKN085 OVC110 29 22 66% 32 75.9 0.0
03 14:15 SE 13 16.09 Overcast OVC075 28 22 70% 31 75.92 0.0
03 13:55 S 11 16.09 Thunderstorm in Vicinity BKN075 29 22 66% 32 75.92 0.0
03 13:35 SE 15 16.09 Mostly Cloudy BKN075 BKN095 29 22 66% 32 75.92 0.0
03 13:15 S 15 16.09 Mostly Cloudy BKN075 29 22 66% 32 75.95 0.0
03 12:55 S 9 16.09 Mostly Cloudy BKN085 30 21 59% 33 75.92 0.0
03 12:35 S 17 G 26 16.09 Partly Cloudy SCT085 29 21 62% 31 75.95 0.0
03 12:15 S 11 16.09 Mostly Cloudy BKN085 BKN100 29 23 70% 33 75.95 0.0
03 11:55 SE 11 16.09 Overcast OVC085 28 22 70% 31 75.97 0.0
03 11:35 SE 9 16.09 Mostly Cloudy BKN085 28 22 70% 31 75.95 0.0
03 11:10 S 9 16.09 Mostly Cloudy BKN080 29 23 70% 33 75.95 0.0
03 10:55 SE 9 16.09 Partly Cloudy SCT070 SCT080 28 22 70% 31 75.92 0.0
03 10:35 S 7 16.09 Fair CLR 28 22 70% 31 75.92 0.0
03 10:15 S 11 16.09 Fair CLR 28 22 70% 31 75.92 0.0
03 09:55 S 9 16.09 Fair CLR 27 22 74% 29 75.95 0.0
03 09:35 S 7 16.09 Fair CLR 27 22 74% 29 75.95 0.0
03 09:15 Calm 16.09 Partly Cloudy SCT048 SCT050 26 21 74% 27 75.97 0.0
03 08:55 Calm 16.09 Mostly Cloudy BKN046 BKN050 24 21 83% 24 76 0.0
03 08:35 SE 7 16.09 Mostly Cloudy SCT044 BKN050 BKN110 23 20 83% 76 0.0
03 08:15 E 9 16.09 Overcast SCT022 BKN037 OVC042 22 20 88% 76.05 0.0
03 07:55 Calm 16.09 Overcast BKN024 BKN030 OVC039 22 19 83% 76.05 0.0
03 07:35 E 7 16.09 Overcast BKN024 BKN034 OVC047 22 19 83% 76.02 0.0
03 07:15 Calm 16.09 Overcast SCT042 OVC050 22 19 83% 76 0.0
03 06:55 NE 7 16.09 Overcast BKN043 OVC049 21 19 88% 75.97 0.0
03 06:35 Calm 16.09 Mostly Cloudy BKN041 21 18 83% 75.97 0.0
03 06:15 Calm 16.09 Fair CLR 20 18 88% 75.95 0.0
03 05:55 E 6 16.09 Fair CLR 21 18 83% 75.97 0.0
03 05:35 NE 7 16.09 Fair CLR 21 18 83% 75.95 0.0
03 05:15 Calm 16.09 Fair CLR 21 18 83% 75.95 0.0
03 04:55 E 6 16.09 Fair CLR 21 18 83% 75.92 0.0
03 04:35 E 6 16.09 Partly Cloudy SCT041 21 18 83% 75.92 0.0
03 04:15 E 6 16.09 Overcast BKN037 OVC043 22 18 78% 75.95 0.0
03 03:55 Calm 16.09 Overcast OVC035 22 18 78% 75.95 0.0
03 03:35 Calm 16.09 Overcast OVC033 22 18 78% 75.95 0.0
03 03:15 E 6 16.09 Overcast OVC033 22 18 78% 75.95 0.0
03 02:55 E 7 16.09 Mostly Cloudy BKN034 22 18 78% 75.95 0.0
03 02:35 E 7 16.09 Partly Cloudy SCT037 SCT120 23 17 69% 75.97 0.0
03 02:15 NE 9 16.09 Fair CLR 22 18 78% 75.97 0.0
03 01:55 NE 7 16.09 Partly Cloudy SCT044 22 18 78% 76 0.0
03 01:35 E 7 16.09 Partly Cloudy SCT044 22 18 78% 76 0.0
03 01:15 E 9 16.09 Partly Cloudy SCT044 22 20 88% 76.02 0.0
03 00:55 NE 11 16.09 Fair CLR 22 20 88% 76 0.0
03 00:35 NE 6 16.09 Fair CLR 22 20 88% 76 0.0
03 00:15 E 7 16.09 Fair CLR 22 20 88% 76.02 0.0
02 23:55 Calm 16.09 Fair CLR 22 20 88% 76.02 0.0
02 23:35 Calm 16.09 Fair CLR 22 20 88% 76 0.0
02 23:15 Calm 16.09 Partly Cloudy SCT060 22 20 88% 76 0.0
02 22:55 NE 6 16.09 Partly Cloudy SCT060 23 20 83% 76 0.0
02 22:35 Calm 16.09 Fair CLR 22 20 88% 76.02 0.0
02 22:15 NE 6 16.09 Fair CLR 23 20 83% 76.02 0.0
02 21:55 Calm 16.09 Fair CLR 23 21 89% 76.02 0.0
02 21:35 Calm 16.09 Fair CLR 23 21 89% 76.02 0.0
02 21:15 Calm 16.09 Fair CLR 23 21 89% 76 0.0
02 20:55 Calm 16.09 Partly Cloudy SCT110 25 21 79% 26 76 0.0
02 20:35 Calm 16.09 Partly Cloudy SCT120 25 21 79% 26 75.97 0.0
02 20:15 Calm 16.09 Fair CLR 26 21 74% 27 75.97 0.0
02 19:55 Calm 16.09 Partly Cloudy SCT095 SCT120 25 21 79% 26 75.95 0.0
02 19:35 Calm 16.09 Mostly Cloudy SCT095 BKN120 27 21 70% 29 75.97 0.0
02 19:15 Calm 16.09 Partly Cloudy SCT120 27 21 70% 29 75.97 0.0
02 18:55 Calm 16.09 Fair CLR 28 19 58% 29 75.97 0.0
02 18:35 Calm 16.09 Fair CLR 30 19 52% 31 75.97 0.0
02 18:15 Calm 16.09 Fair CLR 30 19 52% 31 75.97 0.0
02 17:55 Calm 16.09 Fair CLR 30 18 49% 31 75.97 0.0
02 17:35 Calm 16.09 Fair CLR 31 18 46% 32 75.95 0.0
02 17:15 Calm 16.09 Fair CLR 31 17 43% 31 75.97 0.0
02 16:55 Calm 16.09 Fair CLR 31 17 43% 31 75.97 0.0
02 16:35 Calm 16.09 Fair CLR 31 17 43% 31 75.97 0.0
02 16:15 Calm 16.09 Fair CLR 31 18 46% 32 75.97 0.0
02 15:55 Calm 16.09 Fair CLR 31 17 43% 31 75.97 0.0
02 15:35 Calm 16.09 Partly Cloudy SCT120 31 18 46% 32 76 0.0
02 15:15 Calm 16.09 Mostly Cloudy BKN120 30 17 46% 30 76 0.0
02 14:55 Calm 16.09 Mostly Cloudy BKN120 30 17 46% 30 76.02 0.0
02 14:35 Calm 16.09 Partly Cloudy SCT120 30 17 46% 30 76.02 0.0
02 14:15 S 6 16.09 Fair CLR 30 17 46% 30 76.02 0.0
02 13:55 E 6 16.09 Fair CLR 30 18 49% 31 76.05 0.0
02 13:35 SW 9 16.09 Fair CLR 30 20 55% 32 76.05 0.0
02 13:15 SE 6 16.09 Fair CLR 29 19 55% 30 76.07 0.0
02 12:55 Calm 16.09 Fair CLR 29 17 48% 29 76.07 0.0
02 12:35 Calm 16.09 Fair CLR 28 18 55% 29 76.07 0.0
02 12:15 Calm 16.09 Fair CLR 28 18 55% 29 76.1 0.0
02 11:55 Calm 16.09 Fair CLR 27 20 66% 29 76.12 0.0
02 11:35 Calm 16.09 Fair CLR 27 20 66% 29 76.1 0.0
02 11:15 Calm 16.09 Fair CLR 26 20 70% 27 76.1 0.0
02 10:55 Calm 16.09 Fair CLR 26 20 70% 27 76.07 0.0
02 10:35 SW 6 16.09 Fair CLR 26 20 70% 27 76.07 0.0
02 10:15 Calm 16.09 Fair CLR 25 20 74% 26 76.07 0.0
02 09:55 Calm 16.09 Fair CLR 25 20 74% 26 76.07 0.0
02 09:35 Calm 16.09 Fair CLR 23 19 78% 76.05 0.0
02 09:15 Calm 16.09 Fair CLR 22 20 88% 76.07 0.0
02 08:55 Calm 16.09 Fair CLR 22 20 88% 76.07 0.0
02 08:35 Calm 16.09 Fair CLR 21 20 94% 76.07 0.0
02 08:15 Calm 16.09 Fair CLR 21 20 94% 76.1 0.0
02 07:55 Calm 16.09 Fair CLR 21 20 94% 76.15 0.0
02 07:35 SW 7 16.09 Partly Cloudy SCT120 20 20 100% 76.17 0.0
02 07:15 S 6 16.09 Mostly Cloudy BKN110 20 20 100% 76.17 0.0
02 06:55 S 7 16.09 Mostly Cloudy BKN110 20 20 100% 76.15 0.0
02 06:35 Calm 16.09 Mostly Cloudy BKN120 20 20 100% 76.1 0.0
02 06:15 Calm 16.09 Partly Cloudy SCT120 20 19 94% 76.05 0.0
02 05:55 Calm 16.09 Partly Cloudy SCT120 20 19 94% 76.02 0.0
02 05:35 Calm 16.09 Fair CLR 20 20 100% 76.02 0.0
02 05:15 Calm 16.09 Fair CLR 20 20 100% 76 0.0
02 04:55 E 7 16.09 Fair CLR 21 19 88% 76.02 0.0
02 04:35 E 6 16.09 Partly Cloudy SCT120 21 19 88% 76.05 0.0
02 04:15 NE 6 16.09 Partly Cloudy SCT120 21 19 88% 76.1 0.0
02 03:55 Calm 16.09 Light Drizzle CLR 21 19 88% 76.12 0.0
02 03:35 S 6 16.09 Light Rain CLR 21 20 94% 76.12 0.0
02 03:10 S 9 16.09 Light Rain SCT070 SCT095 BKN120 20 20 100% 76.1 0.0
02 02:55 S 6 16.09 Light Rain SCT095 SCT120 20 20 100% 76.1 0.0
Date Time (cdt) Wind (kph) Vis. (km) Weather Sky Cond. Air Dwpt Max. Min. Relative Humidity Wind Chill (°C) Heat Index (°C) altimeter (cm) sea level (mb) 1 hr 3 hr 6 hr
6 hour
Temperature (ºC) Pressure Precipitation (cm)